sensor_id;sensor_type;location;lat;lon;timestamp;pressure;altitude;pressure_sealevel;temperature;humidity
32747;BME280;19118;50.860;13.662;2024-02-23T00:04:39;94030.50;;;11.19;100.00
32747;BME280;19118;50.860;13.662;2024-02-23T00:09:39;94057.38;;;11.36;100.00
32747;BME280;19118;50.860;13.662;2024-02-23T00:14:39;94079.28;;;11.47;100.00
32747;BME280;19118;50.860;13.662;2024-02-23T00:19:40;94074.25;;;11.46;100.00
32747;BME280;19118;50.860;13.662;2024-02-23T00:24:40;94081.19;;;11.36;100.00
32747;BME280;19118;50.860;13.662;2024-02-23T00:29:41;94091.22;;;11.45;100.00
32747;BME280;19118;50.860;13.662;2024-02-23T00:34:41;94120.41;;;11.24;100.00
32747;BME280;19118;50.860;13.662;2024-02-23T00:39:41;94165.22;;;11.55;100.00
32747;BME280;19118;50.860;13.662;2024-02-23T00:44:41;94193.22;;;11.71;100.00
32747;BME280;19118;50.860;13.662;2024-02-23T00:49:42;94199.16;;;11.43;100.00
32747;BME280;19118;50.860;13.662;2024-02-23T00:54:42;94191.75;;;11.45;100.00
32747;BME280;19118;50.860;13.662;2024-02-23T00:59:42;94183.38;;;11.22;100.00
32747;BME280;19118;50.860;13.662;2024-02-23T01:04:43;94185.56;;;11.10;100.00
32747;BME280;19118;50.860;13.662;2024-02-23T01:09:43;94205.63;;;11.06;100.00
32747;BME280;19118;50.860;13.662;2024-02-23T01:14:43;94227.78;;;11.30;100.00
32747;BME280;19118;50.860;13.662;2024-02-23T01:19:44;94287.56;;;11.36;100.00
32747;BME280;19118;50.860;13.662;2024-02-23T01:24:45;94307.13;;;11.41;100.00
32747;BME280;19118;50.860;13.662;2024-02-23T01:29:45;94302.59;;;11.51;100.00
32747;BME280;19118;50.860;13.662;2024-02-23T01:34:45;94319.81;;;11.49;100.00
32747;BME280;19118;50.860;13.662;2024-02-23T01:39:46;94321.44;;;11.34;100.00
32747;BME280;19118;50.860;13.662;2024-02-23T01:44:46;94324.56;;;11.52;100.00
32747;BME280;19118;50.860;13.662;2024-02-23T01:49:47;94325.16;;;11.18;100.00
32747;BME280;19118;50.860;13.662;2024-02-23T01:54:47;94329.66;;;11.18;100.00
32747;BME280;19118;50.860;13.662;2024-02-23T01:59:48;94339.47;;;11.02;100.00
32747;BME280;19118;50.860;13.662;2024-02-23T02:04:48;94346.88;;;11.00;100.00
32747;BME280;19118;50.860;13.662;2024-02-23T02:09:49;94373.28;;;10.74;100.00
32747;BME280;19118;50.860;13.662;2024-02-23T02:14:49;94392.59;;;10.80;100.00
32747;BME280;19118;50.860;13.662;2024-02-23T02:19:49;94399.72;;;10.74;100.00
32747;BME280;19118;50.860;13.662;2024-02-23T02:24:50;94387.53;;;10.58;100.00
32747;BME280;19118;50.860;13.662;2024-02-23T02:29:50;94412.34;;;10.52;100.00
32747;BME280;19118;50.860;13.662;2024-02-23T02:34:51;94419.16;;;10.28;100.00
32747;BME280;19118;50.860;13.662;2024-02-23T02:39:51;94415.47;;;10.29;100.00
32747;BME280;19118;50.860;13.662;2024-02-23T02:44:52;94425.78;;;10.40;100.00
32747;BME280;19118;50.860;13.662;2024-02-23T02:49:52;94449.31;;;10.32;100.00
32747;BME280;19118;50.860;13.662;2024-02-23T02:54:52;94488.34;;;10.30;100.00
32747;BME280;19118;50.860;13.662;2024-02-23T02:59:53;94490.50;;;10.38;100.00
32747;BME280;19118;50.860;13.662;2024-02-23T03:04:53;94494.69;;;10.24;100.00
32747;BME280;19118;50.860;13.662;2024-02-23T03:09:55;94497.34;;;10.29;100.00
32747;BME280;19118;50.860;13.662;2024-02-23T03:14:55;94519.41;;;10.12;100.00
32747;BME280;19118;50.860;13.662;2024-02-23T03:19:56;94527.53;;;10.01;100.00
32747;BME280;19118;50.860;13.662;2024-02-23T03:24:57;94542.66;;;10.10;100.00
32747;BME280;19118;50.860;13.662;2024-02-23T03:29:58;94553.50;;;10.14;100.00
32747;BME280;19118;50.860;13.662;2024-02-23T03:34:58;94556.13;;;9.77;100.00
32747;BME280;19118;50.860;13.662;2024-02-23T03:39:58;94555.47;;;9.59;100.00
32747;BME280;19118;50.860;13.662;2024-02-23T03:45:00;94580.88;;;9.71;100.00
32747;BME280;19118;50.860;13.662;2024-02-23T03:50:00;94594.75;;;9.56;100.00
32747;BME280;19118;50.860;13.662;2024-02-23T03:55:01;94599.75;;;9.52;100.00
32747;BME280;19118;50.860;13.662;2024-02-23T04:00:01;94612.88;;;9.47;100.00
32747;BME280;19118;50.860;13.662;2024-02-23T04:05:12;94650.00;;;9.68;100.00
32747;BME280;19118;50.860;13.662;2024-02-23T04:10:12;94654.53;;;9.45;100.00
32747;BME280;19118;50.860;13.662;2024-02-23T04:15:16;94678.16;;;9.35;100.00
32747;BME280;19118;50.860;13.662;2024-02-23T04:20:17;94672.47;;;9.21;100.00
32747;BME280;19118;50.860;13.662;2024-02-23T04:25:18;94686.69;;;8.98;100.00
32747;BME280;19118;50.860;13.662;2024-02-23T04:30:18;94699.09;;;8.81;100.00
32747;BME280;19118;50.860;13.662;2024-02-23T04:35:18;94709.38;;;8.61;100.00
32747;BME280;19118;50.860;13.662;2024-02-23T04:40:19;94711.19;;;8.43;100.00
32747;BME280;19118;50.860;13.662;2024-02-23T04:45:19;94722.78;;;8.42;100.00
32747;BME280;19118;50.860;13.662;2024-02-23T04:50:19;94726.56;;;8.18;100.00
32747;BME280;19118;50.860;13.662;2024-02-23T04:55:20;94727.19;;;8.25;100.00
32747;BME280;19118;50.860;13.662;2024-02-23T05:00:20;94745.88;;;8.07;100.00
32747;BME280;19118;50.860;13.662;2024-02-23T05:05:21;94779.59;;;8.38;100.00
32747;BME280;19118;50.860;13.662;2024-02-23T05:10:22;94803.06;;;8.40;100.00
32747;BME280;19118;50.860;13.662;2024-02-23T05:15:22;94843.91;;;8.14;100.00
32747;BME280;19118;50.860;13.662;2024-02-23T05:20:23;94838.63;;;8.14;100.00
32747;BME280;19118;50.860;13.662;2024-02-23T05:25:23;94852.41;;;8.04;100.00
32747;BME280;19118;50.860;13.662;2024-02-23T05:30:25;94856.47;;;7.95;100.00
32747;BME280;19118;50.860;13.662;2024-02-23T05:35:27;94846.53;;;8.14;100.00
32747;BME280;19118;50.860;13.662;2024-02-23T05:40:27;94838.34;;;7.99;100.00
32747;BME280;19118;50.860;13.662;2024-02-23T05:45:28;94859.69;;;7.85;100.00
32747;BME280;19118;50.860;13.662;2024-02-23T05:50:28;94866.09;;;7.78;100.00
32747;BME280;19118;50.860;13.662;2024-02-23T05:55:28;94877.03;;;7.98;100.00
32747;BME280;19118;50.860;13.662;2024-02-23T06:00:29;94873.41;;;7.87;100.00
32747;BME280;19118;50.860;13.662;2024-02-23T06:05:31;94886.47;;;7.82;100.00
32747;BME280;19118;50.860;13.662;2024-02-23T06:10:31;94894.72;;;7.74;100.00
32747;BME280;19118;50.860;13.662;2024-02-23T06:15:31;94896.78;;;7.72;100.00
32747;BME280;19118;50.860;13.662;2024-02-23T06:20:32;94927.53;;;7.72;100.00
32747;BME280;19118;50.860;13.662;2024-02-23T06:25:32;94940.47;;;7.62;100.00
32747;BME280;19118;50.860;13.662;2024-02-23T06:30:32;94943.19;;;7.78;100.00
32747;BME280;19118;50.860;13.662;2024-02-23T06:35:33;94936.47;;;7.71;100.00
32747;BME280;19118;50.860;13.662;2024-02-23T06:40:33;94941.59;;;7.77;100.00
32747;BME280;19118;50.860;13.662;2024-02-23T06:45:33;94934.25;;;7.79;100.00
32747;BME280;19118;50.860;13.662;2024-02-23T06:50:35;94937.25;;;7.83;100.00
32747;BME280;19118;50.860;13.662;2024-02-23T06:55:35;94932.22;;;7.81;100.00
32747;BME280;19118;50.860;13.662;2024-02-23T07:00:36;94936.84;;;8.03;100.00
32747;BME280;19118;50.860;13.662;2024-02-23T07:05:36;94942.88;;;8.15;100.00
32747;BME280;19118;50.860;13.662;2024-02-23T07:10:36;94949.97;;;8.26;100.00
32747;BME280;19118;50.860;13.662;2024-02-23T07:15:37;94965.38;;;8.06;100.00
32747;BME280;19118;50.860;13.662;2024-02-23T07:20:37;94997.53;;;8.08;100.00
32747;BME280;19118;50.860;13.662;2024-02-23T07:25:38;95019.91;;;8.34;100.00
32747;BME280;19118;50.860;13.662;2024-02-23T07:30:38;95014.22;;;8.02;100.00
32747;BME280;19118;50.860;13.662;2024-02-23T07:35:39;95025.88;;;8.29;100.00
32747;BME280;19118;50.860;13.662;2024-02-23T07:40:39;95041.47;;;8.19;100.00
32747;BME280;19118;50.860;13.662;2024-02-23T07:45:40;95048.84;;;8.57;100.00
32747;BME280;19118;50.860;13.662;2024-02-23T07:50:40;95068.44;;;8.73;100.00
32747;BME280;19118;50.860;13.662;2024-02-23T07:55:40;95069.63;;;8.42;100.00
32747;BME280;19118;50.860;13.662;2024-02-23T08:00:41;95074.53;;;8.62;100.00
32747;BME280;19118;50.860;13.662;2024-02-23T08:05:41;95081.59;;;8.73;100.00
32747;BME280;19118;50.860;13.662;2024-02-23T08:10:41;95088.25;;;8.64;100.00
32747;BME280;19118;50.860;13.662;2024-02-23T08:15:42;95074.66;;;8.95;100.00
32747;BME280;19118;50.860;13.662;2024-02-23T08:20:42;95071.47;;;8.82;100.00
32747;BME280;19118;50.860;13.662;2024-02-23T08:25:42;95068.72;;;8.88;100.00
32747;BME280;19118;50.860;13.662;2024-02-23T08:30:43;95061.38;;;8.90;100.00
32747;BME280;19118;50.860;13.662;2024-02-23T08:35:43;95055.81;;;8.75;100.00
32747;BME280;19118;50.860;13.662;2024-02-23T08:40:44;95066.38;;;8.63;100.00
32747;BME280;19118;50.860;13.662;2024-02-23T08:45:45;95057.06;;;8.84;100.00
32747;BME280;19118;50.860;13.662;2024-02-23T08:50:45;95046.88;;;8.76;100.00
32747;BME280;19118;50.860;13.662;2024-02-23T08:55:46;95064.28;;;9.05;100.00
32747;BME280;19118;50.860;13.662;2024-02-23T09:00:46;95084.28;;;9.30;100.00
32747;BME280;19118;50.860;13.662;2024-02-23T09:05:46;95083.47;;;9.75;100.00
32747;BME280;19118;50.860;13.662;2024-02-23T09:10:48;95090.34;;;10.26;100.00
32747;BME280;19118;50.860;13.662;2024-02-23T09:15:48;95104.81;;;10.07;100.00
32747;BME280;19118;50.860;13.662;2024-02-23T09:20:48;95112.09;;;10.16;100.00
32747;BME280;19118;50.860;13.662;2024-02-23T09:25:49;95129.31;;;10.36;100.00
32747;BME280;19118;50.860;13.662;2024-02-23T09:30:49;95131.31;;;10.29;100.00
32747;BME280;19118;50.860;13.662;2024-02-23T09:35:50;95121.34;;;10.53;100.00
32747;BME280;19118;50.860;13.662;2024-02-23T09:40:51;95130.44;;;10.78;100.00
32747;BME280;19118;50.860;13.662;2024-02-23T09:45:52;95132.28;;;10.78;99.60
32747;BME280;19118;50.860;13.662;2024-02-23T09:50:53;95121.47;;;10.79;99.49
32747;BME280;19118;50.860;13.662;2024-02-23T09:55:59;95113.84;;;11.27;96.81
32747;BME280;19118;50.860;13.662;2024-02-23T10:01:01;95096.38;;;11.04;93.25
32747;BME280;19118;50.860;13.662;2024-02-23T10:06:02;95101.28;;;11.17;93.70
32747;BME280;19118;50.860;13.662;2024-02-23T10:11:03;95135.25;;;11.25;94.30
32747;BME280;19118;50.860;13.662;2024-02-23T10:16:04;95138.44;;;11.27;90.06
32747;BME280;19118;50.860;13.662;2024-02-23T10:21:05;95157.25;;;12.02;91.05
32747;BME280;19118;50.860;13.662;2024-02-23T10:26:07;95155.53;;;12.22;87.29
32747;BME280;19118;50.860;13.662;2024-02-23T10:31:07;95173.88;;;12.24;85.36
32747;BME280;19118;50.860;13.662;2024-02-23T10:36:07;95177.88;;;12.00;82.54
32747;BME280;19118;50.860;13.662;2024-02-23T10:41:13;95175.19;;;11.94;82.68
32747;BME280;19118;50.860;13.662;2024-02-23T10:46:14;95174.25;;;12.11;80.75
32747;BME280;19118;50.860;13.662;2024-02-23T10:51:15;95184.38;;;12.14;79.53
32747;BME280;19118;50.860;13.662;2024-02-23T10:56:15;95203.50;;;12.21;78.43
32747;BME280;19118;50.860;13.662;2024-02-23T11:01:17;95213.63;;;11.97;77.83
32747;BME280;19118;50.860;13.662;2024-02-23T11:06:19;95212.41;;;11.61;78.82
32747;BME280;19118;50.860;13.662;2024-02-23T11:11:21;95208.22;;;12.14;79.05
32747;BME280;19118;50.860;13.662;2024-02-23T11:16:22;95206.19;;;11.94;77.79
32747;BME280;19118;50.860;13.662;2024-02-23T11:21:33;95204.06;;;11.96;76.42
32747;BME280;19118;50.860;13.662;2024-02-23T11:26:37;95214.25;;;12.36;77.16
32747;BME280;19118;50.860;13.662;2024-02-23T11:31:44;95199.81;;;12.54;75.80
32747;BME280;19118;50.860;13.662;2024-02-23T11:36:50;95196.78;;;12.40;74.46
32747;BME280;19118;50.860;13.662;2024-02-23T11:41:50;95204.88;;;12.23;74.93
32747;BME280;19118;50.860;13.662;2024-02-23T11:46:51;95200.34;;;11.70;74.25
32747;BME280;19118;50.860;13.662;2024-02-23T11:51:51;95214.41;;;11.76;77.94
32747;BME280;19118;50.860;13.662;2024-02-23T11:56:53;95202.06;;;11.81;75.86
32747;BME280;19118;50.860;13.662;2024-02-23T12:01:54;95187.09;;;11.70;74.72
32747;BME280;19118;50.860;13.662;2024-02-23T12:06:54;95195.97;;;12.08;74.56
32747;BME280;19118;50.860;13.662;2024-02-23T12:11:56;95199.63;;;12.02;72.56
32747;BME280;19118;50.860;13.662;2024-02-23T12:16:57;95199.06;;;12.64;70.08
32747;BME280;19118;50.860;13.662;2024-02-23T12:22:01;95193.78;;;13.06;68.85
32747;BME280;19118;50.860;13.662;2024-02-23T12:27:02;95186.13;;;13.15;67.39
32747;BME280;19118;50.860;13.662;2024-02-23T12:32:06;95175.09;;;13.33;66.49
32747;BME280;19118;50.860;13.662;2024-02-23T12:37:07;95174.41;;;13.10;65.89
32747;BME280;19118;50.860;13.662;2024-02-23T12:42:08;95169.09;;;13.05;66.87
32747;BME280;19118;50.860;13.662;2024-02-23T12:47:08;95180.41;;;13.33;66.33
32747;BME280;19118;50.860;13.662;2024-02-23T12:52:09;95197.03;;;12.76;74.58
32747;BME280;19118;50.860;13.662;2024-02-23T12:57:10;95189.81;;;12.34;79.16
32747;BME280;19118;50.860;13.662;2024-02-23T13:02:11;95197.22;;;12.27;81.17
32747;BME280;19118;50.860;13.662;2024-02-23T13:07:12;95196.97;;;12.02;82.53
32747;BME280;19118;50.860;13.662;2024-02-23T13:12:12;95202.38;;;11.85;84.07
32747;BME280;19118;50.860;13.662;2024-02-23T13:17:13;95190.34;;;12.31;82.10
32747;BME280;19118;50.860;13.662;2024-02-23T13:22:13;95187.31;;;12.49;78.60
32747;BME280;19118;50.860;13.662;2024-02-23T13:27:14;95186.28;;;12.56;75.31
32747;BME280;19118;50.860;13.662;2024-02-23T13:32:14;95186.59;;;12.59;72.13
32747;BME280;19118;50.860;13.662;2024-02-23T13:37:14;95182.56;;;12.51;72.02
32747;BME280;19118;50.860;13.662;2024-02-23T13:42:16;95182.84;;;12.23;68.17
32747;BME280;19118;50.860;13.662;2024-02-23T13:47:16;95179.09;;;12.19;69.40
32747;BME280;19118;50.860;13.662;2024-02-23T13:52:17;95179.16;;;11.70;70.69
32747;BME280;19118;50.860;13.662;2024-02-23T13:57:17;95194.53;;;11.95;70.00
32747;BME280;19118;50.860;13.662;2024-02-23T14:02:25;95205.31;;;11.88;74.18
32747;BME280;19118;50.860;13.662;2024-02-23T14:07:27;95205.69;;;11.53;75.72
32747;BME280;19118;50.860;13.662;2024-02-23T14:12:27;95203.38;;;11.35;80.18
32747;BME280;19118;50.860;13.662;2024-02-23T14:17:28;95210.53;;;11.34;82.65
32747;BME280;19118;50.860;13.662;2024-02-23T14:22:28;95218.47;;;11.34;81.81
32747;BME280;19118;50.860;13.662;2024-02-23T14:27:29;95222.19;;;11.17;83.21
32747;BME280;19118;50.860;13.662;2024-02-23T14:32:29;95222.50;;;11.20;86.01
32747;BME280;19118;50.860;13.662;2024-02-23T14:37:30;95221.53;;;11.26;88.55
32747;BME280;19118;50.860;13.662;2024-02-23T14:42:30;95220.81;;;10.92;87.56
32747;BME280;19118;50.860;13.662;2024-02-23T14:47:30;95209.38;;;10.53;89.15
32747;BME280;19118;50.860;13.662;2024-02-23T14:52:31;95213.47;;;10.77;91.67
32747;BME280;19118;50.860;13.662;2024-02-23T14:57:31;95215.22;;;10.22;94.11
32747;BME280;19118;50.860;13.662;2024-02-23T15:02:32;95212.69;;;10.43;94.35
32747;BME280;19118;50.860;13.662;2024-02-23T15:07:33;95202.56;;;10.24;97.24
32747;BME280;19118;50.860;13.662;2024-02-23T15:12:34;95181.81;;;10.15;98.25
32747;BME280;19118;50.860;13.662;2024-02-23T15:17:35;95193.41;;;9.98;99.84
32747;BME280;19118;50.860;13.662;2024-02-23T15:22:35;95200.50;;;10.26;100.00
32747;BME280;19118;50.860;13.662;2024-02-23T15:27:36;95213.88;;;10.07;100.00
32747;BME280;19118;50.860;13.662;2024-02-23T15:32:37;95208.63;;;9.79;100.00
32747;BME280;19118;50.860;13.662;2024-02-23T15:37:37;95214.53;;;9.41;100.00
32747;BME280;19118;50.860;13.662;2024-02-23T15:42:38;95185.63;;;9.62;100.00
32747;BME280;19118;50.860;13.662;2024-02-23T15:47:39;95184.25;;;9.31;100.00
32747;BME280;19118;50.860;13.662;2024-02-23T15:52:39;95177.97;;;9.21;100.00
32747;BME280;19118;50.860;13.662;2024-02-23T15:57:39;95167.44;;;9.21;100.00
32747;BME280;19118;50.860;13.662;2024-02-23T16:02:40;95191.19;;;9.09;100.00
32747;BME280;19118;50.860;13.662;2024-02-23T16:07:40;95226.75;;;8.95;100.00
32747;BME280;19118;50.860;13.662;2024-02-23T16:12:40;95228.38;;;8.84;100.00
32747;BME280;19118;50.860;13.662;2024-02-23T16:17:41;95246.00;;;8.72;100.00
32747;BME280;19118;50.860;13.662;2024-02-23T16:22:43;95273.50;;;8.53;100.00
32747;BME280;19118;50.860;13.662;2024-02-23T16:27:43;95285.47;;;8.49;100.00
32747;BME280;19118;50.860;13.662;2024-02-23T16:32:44;95284.81;;;8.23;100.00
32747;BME280;19118;50.860;13.662;2024-02-23T16:37:47;95282.03;;;8.36;100.00
32747;BME280;19118;50.860;13.662;2024-02-23T16:42:48;95276.47;;;8.26;100.00
32747;BME280;19118;50.860;13.662;2024-02-23T16:47:48;95280.28;;;8.30;100.00
32747;BME280;19118;50.860;13.662;2024-02-23T16:52:48;95287.59;;;8.28;100.00
32747;BME280;19118;50.860;13.662;2024-02-23T16:57:49;95277.38;;;8.20;100.00
32747;BME280;19118;50.860;13.662;2024-02-23T17:02:49;95273.16;;;8.19;100.00
32747;BME280;19118;50.860;13.662;2024-02-23T17:07:49;95262.06;;;8.17;100.00
32747;BME280;19118;50.860;13.662;2024-02-23T17:12:50;95250.53;;;8.00;100.00
32747;BME280;19118;50.860;13.662;2024-02-23T17:17:52;95258.75;;;7.92;100.00
32747;BME280;19118;50.860;13.662;2024-02-23T17:22:53;95257.66;;;7.81;100.00
32747;BME280;19118;50.860;13.662;2024-02-23T17:27:53;95265.97;;;7.66;100.00
32747;BME280;19118;50.860;13.662;2024-02-23T17:32:53;95260.53;;;7.49;100.00
32747;BME280;19118;50.860;13.662;2024-02-23T17:37:54;95259.50;;;7.32;100.00
32747;BME280;19118;50.860;13.662;2024-02-23T17:42:54;95244.41;;;7.27;100.00
32747;BME280;19118;50.860;13.662;2024-02-23T17:47:55;95232.13;;;7.21;100.00
32747;BME280;19118;50.860;13.662;2024-02-23T17:52:55;95224.50;;;7.13;100.00
32747;BME280;19118;50.860;13.662;2024-02-23T17:57:56;95208.31;;;7.16;100.00
32747;BME280;19118;50.860;13.662;2024-02-23T18:02:56;95204.66;;;7.17;100.00
32747;BME280;19118;50.860;13.662;2024-02-23T18:07:56;95188.97;;;7.11;100.00
32747;BME280;19118;50.860;13.662;2024-02-23T18:12:57;95199.25;;;7.12;100.00
32747;BME280;19118;50.860;13.662;2024-02-23T18:17:57;95196.19;;;6.97;100.00
32747;BME280;19118;50.860;13.662;2024-02-23T18:22:58;95202.84;;;6.99;100.00
32747;BME280;19118;50.860;13.662;2024-02-23T18:27:58;95188.31;;;6.97;100.00
32747;BME280;19118;50.860;13.662;2024-02-23T18:32:58;95185.97;;;6.89;100.00
32747;BME280;19118;50.860;13.662;2024-02-23T18:37:59;95175.47;;;6.89;100.00
32747;BME280;19118;50.860;13.662;2024-02-23T18:42:59;95176.34;;;6.83;100.00
32747;BME280;19118;50.860;13.662;2024-02-23T18:47:59;95159.78;;;6.82;100.00
32747;BME280;19118;50.860;13.662;2024-02-23T18:53:00;95163.50;;;6.75;100.00
32747;BME280;19118;50.860;13.662;2024-02-23T18:58:00;95179.94;;;6.70;100.00
32747;BME280;19118;50.860;13.662;2024-02-23T19:03:01;95191.06;;;6.65;100.00
32747;BME280;19118;50.860;13.662;2024-02-23T19:08:01;95189.03;;;6.49;100.00
32747;BME280;19118;50.860;13.662;2024-02-23T19:13:02;95173.84;;;6.51;100.00
32747;BME280;19118;50.860;13.662;2024-02-23T19:18:03;95184.34;;;6.51;100.00
32747;BME280;19118;50.860;13.662;2024-02-23T19:23:03;95174.88;;;6.50;100.00
32747;BME280;19118;50.860;13.662;2024-02-23T19:28:04;95170.19;;;6.52;100.00
32747;BME280;19118;50.860;13.662;2024-02-23T19:33:04;95169.75;;;6.55;100.00
32747;BME280;19118;50.860;13.662;2024-02-23T19:38:04;95190.41;;;6.52;100.00
32747;BME280;19118;50.860;13.662;2024-02-23T19:43:05;95195.66;;;6.52;100.00
32747;BME280;19118;50.860;13.662;2024-02-23T19:48:05;95213.00;;;6.53;100.00
32747;BME280;19118;50.860;13.662;2024-02-23T19:53:06;95233.19;;;6.59;100.00
32747;BME280;19118;50.860;13.662;2024-02-23T19:58:07;95237.63;;;6.58;100.00
32747;BME280;19118;50.860;13.662;2024-02-23T20:03:07;95235.13;;;6.63;100.00
32747;BME280;19118;50.860;13.662;2024-02-23T20:08:07;95223.78;;;6.69;100.00
32747;BME280;19118;50.860;13.662;2024-02-23T20:13:08;95220.53;;;6.67;100.00
32747;BME280;19118;50.860;13.662;2024-02-23T20:18:09;95223.47;;;6.78;100.00
32747;BME280;19118;50.860;13.662;2024-02-23T20:23:09;95200.28;;;6.75;100.00
32747;BME280;19118;50.860;13.662;2024-02-23T20:28:10;95165.38;;;6.67;100.00
32747;BME280;19118;50.860;13.662;2024-02-23T20:33:10;95178.59;;;6.61;100.00
32747;BME280;19118;50.860;13.662;2024-02-23T20:38:11;95191.78;;;6.54;100.00
32747;BME280;19118;50.860;13.662;2024-02-23T20:43:11;95205.22;;;6.46;100.00
32747;BME280;19118;50.860;13.662;2024-02-23T20:48:11;95210.19;;;6.29;100.00
32747;BME280;19118;50.860;13.662;2024-02-23T20:53:13;95190.69;;;6.19;100.00
32747;BME280;19118;50.860;13.662;2024-02-23T20:58:13;95183.84;;;6.18;100.00
32747;BME280;19118;50.860;13.662;2024-02-23T21:03:15;95200.44;;;6.11;100.00
32747;BME280;19118;50.860;13.662;2024-02-23T21:08:15;95213.41;;;6.06;100.00
32747;BME280;19118;50.860;13.662;2024-02-23T21:13:15;95224.03;;;6.11;100.00
32747;BME280;19118;50.860;13.662;2024-02-23T21:18:16;95233.56;;;6.12;100.00
32747;BME280;19118;50.860;13.662;2024-02-23T21:23:16;95227.09;;;6.08;100.00
32747;BME280;19118;50.860;13.662;2024-02-23T21:28:16;95221.28;;;6.06;100.00
32747;BME280;19118;50.860;13.662;2024-02-23T21:33:17;95204.47;;;6.14;100.00
32747;BME280;19118;50.860;13.662;2024-02-23T21:38:17;95185.44;;;6.19;100.00
32747;BME280;19118;50.860;13.662;2024-02-23T21:43:17;95170.47;;;6.26;100.00
32747;BME280;19118;50.860;13.662;2024-02-23T21:48:18;95168.09;;;6.18;100.00
32747;BME280;19118;50.860;13.662;2024-02-23T21:53:18;95155.66;;;6.06;100.00
32747;BME280;19118;50.860;13.662;2024-02-23T21:58:18;95143.13;;;6.08;100.00
32747;BME280;19118;50.860;13.662;2024-02-23T22:03:19;95145.03;;;6.01;100.00
32747;BME280;19118;50.860;13.662;2024-02-23T22:08:21;95150.88;;;6.03;100.00
32747;BME280;19118;50.860;13.662;2024-02-23T22:13:21;95141.97;;;6.04;100.00
32747;BME280;19118;50.860;13.662;2024-02-23T22:18:21;95145.03;;;6.01;100.00
32747;BME280;19118;50.860;13.662;2024-02-23T22:23:22;95131.53;;;5.98;100.00
32747;BME280;19118;50.860;13.662;2024-02-23T22:28:22;95123.88;;;5.96;100.00
32747;BME280;19118;50.860;13.662;2024-02-23T22:33:22;95112.63;;;5.89;100.00
32747;BME280;19118;50.860;13.662;2024-02-23T22:38:22;95096.41;;;5.99;100.00
32747;BME280;19118;50.860;13.662;2024-02-23T22:43:23;95099.69;;;5.94;100.00
32747;BME280;19118;50.860;13.662;2024-02-23T22:48:24;95095.59;;;5.98;100.00
32747;BME280;19118;50.860;13.662;2024-02-23T22:53:25;95094.31;;;6.07;100.00
32747;BME280;19118;50.860;13.662;2024-02-23T22:58:25;95090.53;;;6.03;100.00
32747;BME280;19118;50.860;13.662;2024-02-23T23:03:25;95094.03;;;6.16;100.00
32747;BME280;19118;50.860;13.662;2024-02-23T23:08:26;95101.25;;;6.20;100.00
32747;BME280;19118;50.860;13.662;2024-02-23T23:13:29;95101.47;;;6.19;100.00
32747;BME280;19118;50.860;13.662;2024-02-23T23:18:30;95104.44;;;6.22;100.00
32747;BME280;19118;50.860;13.662;2024-02-23T23:23:30;95109.91;;;6.21;100.00
32747;BME280;19118;50.860;13.662;2024-02-23T23:28:30;95112.13;;;6.24;100.00
32747;BME280;19118;50.860;13.662;2024-02-23T23:33:31;95118.75;;;6.26;100.00
32747;BME280;19118;50.860;13.662;2024-02-23T23:38:31;95121.16;;;6.28;100.00
32747;BME280;19118;50.860;13.662;2024-02-23T23:43:31;95116.13;;;6.26;100.00
32747;BME280;19118;50.860;13.662;2024-02-23T23:48:33;95106.00;;;6.30;100.00
32747;BME280;19118;50.860;13.662;2024-02-23T23:53:33;95099.28;;;6.34;100.00
32747;BME280;19118;50.860;13.662;2024-02-23T23:58:34;95092.03;;;6.36;100.00
